Yao, Japan
Current Conditions -  °F | °C
As of 7:00 PM on Sunday 21 Dec 2014 (Local Time) from RJOY Reporting Station
Overcast Overcast  
Wind Chill: 37°   Ceiling: Unl
Heat Index: 43°   Visibility: 6mi
Dew Point: 25°   Wind: 12mph
Humidity: 49%   Direction: 280°W
Pressure: 30.03"   Gusts: NA
Location:  34.63°N, 135.58°E
Report Text: RJOY 211000Z 28010KT 9999 FEW040 OVC/// 06/M04 Q1017
Loading
Personal Weather Stations






























Interactive Weather Map New forecast layout! Learn more

10-Day Weather Forecast

Advertisements
Track Severe Weather on mobile